Time;durP1;ratioP1;P1;durP2;ratioP2;P2;SDS_P1;SDS_P2;PMS_P1;PMS_P2;Temp;Humidity;BMP_temperature;BMP_pressure;BME280_temperature;BME280_humidity;BME280_pressure;Samples;Min_cycle;Max_cycle;Signal;HPM_P1;HPM_P2
2024/03/16 00:02:17;;;;;;;37.83;7.38;;;;;;;;;;4985932;28;25164;-73
2024/03/16 00:04:44;;;;;;;41.70;6.68;;;;;;;;;;4986289;28;25059;-75
2024/03/16 00:07:10;;;;;;;35.28;8.15;;;;;;;;;;4977177;28;25111;-72
2024/03/16 00:09:37;;;;;;;32.13;6.03;;;;;;;;;;4973983;28;25124;-75
2024/03/16 00:12:04;;;;;;;37.72;6.63;;;;;;;;;;4980613;28;25066;-74
2024/03/16 00:14:30;;;;;;;34.30;6.80;;;;;;;;;;4971351;28;25131;-75
2024/03/16 00:16:56;;;;;;;36.15;6.00;;;;;;;;;;4968534;28;25143;-72
2024/03/16 00:19:22;;;;;;;34.88;7.15;;;;;;;;;;4973486;28;25152;-73
2024/03/16 00:21:48;;;;;;;43.47;6.43;;;;;;;;;;4972764;28;25077;-72
2024/03/16 00:24:14;;;;;;;37.58;6.75;;;;;;;;;;4971691;28;25063;-73
2024/03/16 00:26:40;;;;;;;37.03;6.43;;;;;;;;;;4967687;28;25111;-73
2024/03/16 00:29:07;;;;;;;37.53;6.72;;;;;;;;;;4985211;28;25091;-73
2024/03/16 00:31:33;;;;;;;30.48;6.70;;;;;;;;;;4971776;28;25058;-74
2024/03/16 00:33:59;;;;;;;40.70;8.20;;;;;;;;;;4974793;28;25066;-74
2024/03/16 00:36:25;;;;;;;54.80;8.52;;;;;;;;;;4970139;28;25047;-72
2024/03/16 00:38:51;;;;;;;34.60;7.10;;;;;;;;;;4973182;28;25068;-75
2024/03/16 00:41:17;;;;;;;40.67;8.48;;;;;;;;;;4964986;28;25074;-73
2024/03/16 00:43:46;;;;;;;36.78;7.60;;;;;;;;;;4971096;28;25138;-75
2024/03/16 00:46:13;;;;;;;45.13;7.47;;;;;;;;;;4985612;28;25082;-73
2024/03/16 00:48:39;;;;;;;47.28;8.75;;;;;;;;;;4969092;28;25065;-75
2024/03/16 00:51:05;;;;;;;47.40;10.55;;;;;;;;;;4969990;28;25079;-74
2024/03/16 00:53:31;;;;;;;42.47;8.60;;;;;;;;;;4969168;28;25090;-72
2024/03/16 00:55:57;;;;;;;47.17;9.70;;;;;;;;;;4972031;28;25101;-71
2024/03/16 00:58:23;;;;;;;42.83;8.63;;;;;;;;;;4968926;28;25078;-74
2024/03/16 01:00:51;;;;;;;40.47;9.02;;;;;;;;;;4974784;28;25056;-73
2024/03/16 01:03:17;;;;;;;38.22;8.23;;;;;;;;;;4971575;28;25073;-73
2024/03/16 01:05:43;;;;;;;34.67;8.70;;;;;;;;;;4975203;28;25071;-74
2024/03/16 01:08:09;;;;;;;52.65;9.77;;;;;;;;;;4976094;28;25105;-77
2024/03/16 01:10:34;;;;;;;48.22;8.93;;;;;;;;;;4960755;28;25079;-73
2024/03/16 01:13:00;;;;;;;48.15;9.77;;;;;;;;;;4967972;28;25150;-73
2024/03/16 01:15:26;;;;;;;41.65;10.65;;;;;;;;;;4968810;28;25154;-74
2024/03/16 01:17:52;;;;;;;51.67;11.68;;;;;;;;;;4971492;28;25071;-72
2024/03/16 01:20:18;;;;;;;51.88;12.43;;;;;;;;;;4969648;28;25109;-74
2024/03/16 01:22:44;;;;;;;39.30;10.27;;;;;;;;;;4970421;28;25056;-73
2024/03/16 01:25:12;;;;;;;45.75;9.25;;;;;;;;;;4966914;28;25087;-74
2024/03/16 01:27:39;;;;;;;30.17;8.27;;;;;;;;;;4959943;28;25063;-71
2024/03/16 01:30:06;;;;;;;32.80;8.55;;;;;;;;;;4970122;28;25086;-72
2024/03/16 01:32:32;;;;;;;35.15;7.85;;;;;;;;;;4972440;28;25111;-74
2024/03/16 01:34:58;;;;;;;28.40;8.23;;;;;;;;;;4967054;28;25072;-72
2024/03/16 01:37:24;;;;;;;31.00;8.45;;;;;;;;;;4973078;28;25068;-73
2024/03/16 01:39:50;;;;;;;17.77;5.88;;;;;;;;;;4972177;28;25094;-74
2024/03/16 01:42:16;;;;;;;16.35;5.78;;;;;;;;;;4966331;28;25067;-72
2024/03/16 01:45:02;;;;;;;21.35;6.47;;;;;;;;;;4965928;28;25094;-73
2024/03/16 01:47:28;;;;;;;17.45;5.43;;;;;;;;;;4963218;28;25074;-72
2024/03/16 01:49:54;;;;;;;18.60;5.38;;;;;;;;;;4967320;28;25137;-76
2024/03/16 01:52:20;;;;;;;14.77;5.22;;;;;;;;;;4964280;28;25049;-71
2024/03/16 01:54:46;;;;;;;12.15;5.40;;;;;;;;;;4967245;28;25074;-71
2024/03/16 01:57:12;;;;;;;15.77;5.70;;;;;;;;;;4969156;28;25059;-74
2024/03/16 01:59:38;;;;;;;12.68;6.28;;;;;;;;;;4971585;28;25070;-71
2024/03/16 02:02:04;;;;;;;14.45;5.63;;;;;;;;;;4970085;28;25117;-72
2024/03/16 02:04:30;;;;;;;12.65;6.65;;;;;;;;;;4974614;28;25062;-71
2024/03/16 02:06:57;;;;;;;13.38;5.47;;;;;;;;;;4968624;28;25143;-73
2024/03/16 02:09:23;;;;;;;26.90;6.70;;;;;;;;;;4966354;28;25071;-74
2024/03/16 02:11:49;;;;;;;13.32;5.05;;;;;;;;;;4961154;28;25078;-74
2024/03/16 02:14:15;;;;;;;13.98;6.10;;;;;;;;;;4960275;28;25062;-72
2024/03/16 02:16:41;;;;;;;15.38;5.43;;;;;;;;;;4968605;28;25044;-72
2024/03/16 02:19:07;;;;;;;9.98;5.72;;;;;;;;;;4967653;28;25078;-74
2024/03/16 02:21:34;;;;;;;11.82;5.45;;;;;;;;;;4962489;28;25099;-72
2024/03/16 02:24:00;;;;;;;16.98;6.82;;;;;;;;;;4960977;28;25211;-72
2024/03/16 02:26:26;;;;;;;16.92;6.68;;;;;;;;;;4964562;28;25076;-71
2024/03/16 02:28:52;;;;;;;21.80;7.47;;;;;;;;;;4966763;28;25077;-71
2024/03/16 02:31:18;;;;;;;16.30;8.30;;;;;;;;;;4970044;28;25061;-72
2024/03/16 02:33:45;;;;;;;17.20;7.05;;;;;;;;;;4975904;28;25090;-74
2024/03/16 02:36:11;;;;;;;15.85;7.35;;;;;;;;;;4972990;28;25165;-72
2024/03/16 02:38:40;;;;;;;22.10;8.25;;;;;;;;;;4972703;28;25076;-74
2024/03/16 02:41:07;;;;;;;21.33;7.53;;;;;;;;;;4959710;28;25176;-73
2024/03/16 02:43:34;;;;;;;20.08;8.02;;;;;;;;;;4964728;28;25160;-72
2024/03/16 02:46:00;;;;;;;26.77;8.60;;;;;;;;;;4968883;28;25056;-70
2024/03/16 02:48:26;;;;;;;20.10;8.85;;;;;;;;;;4970768;28;25072;-74
2024/03/16 02:50:52;;;;;;;26.10;9.25;;;;;;;;;;4965852;28;25053;-72
2024/03/16 02:53:18;;;;;;;25.38;8.40;;;;;;;;;;4963514;28;25143;-73
2024/03/16 02:55:44;;;;;;;23.63;8.63;;;;;;;;;;4961688;28;25049;-72
2024/03/16 02:58:10;;;;;;;25.70;7.90;;;;;;;;;;4960768;28;25062;-75
2024/03/16 03:00:36;;;;;;;18.98;8.00;;;;;;;;;;4973448;28;25099;-72
2024/03/16 03:03:02;;;;;;;30.08;9.77;;;;;;;;;;4965052;28;25081;-71
2024/03/16 03:05:28;;;;;;;17.42;5.30;;;;;;;;;;4968993;28;25258;-72
2024/03/16 03:07:54;;;;;;;15.90;3.90;;;;;;;;;;4968391;28;25050;-73
2024/03/16 03:10:21;;;;;;;15.55;3.70;;;;;;;;;;4967173;28;25052;-72
2024/03/16 03:12:47;;;;;;;12.32;3.00;;;;;;;;;;4960385;28;25061;-74
2024/03/16 03:15:13;;;;;;;12.55;4.30;;;;;;;;;;4958866;28;25123;-76
2024/03/16 03:17:39;;;;;;;12.85;2.70;;;;;;;;;;4967891;28;25095;-72
2024/03/16 03:20:08;;;;;;;7.82;2.22;;;;;;;;;;4966391;28;25060;-71
2024/03/16 03:22:34;;;;;;;12.55;2.55;;;;;;;;;;4971198;28;25050;-73
2024/03/16 03:25:00;;;;;;;14.23;2.80;;;;;;;;;;4958653;28;25051;-73
2024/03/16 03:27:26;;;;;;;10.63;2.25;;;;;;;;;;4959261;28;25146;-74
2024/03/16 03:29:52;;;;;;;12.82;2.70;;;;;;;;;;4968584;28;25111;-74
2024/03/16 03:32:18;;;;;;;10.02;2.92;;;;;;;;;;4982956;28;25056;-73
2024/03/16 03:34:44;;;;;;;8.98;2.03;;;;;;;;;;4981229;28;25054;-72
2024/03/16 03:37:12;;;;;;;15.70;2.92;;;;;;;;;;4989348;28;25062;-75
2024/03/16 03:39:38;;;;;;;8.20;1.92;;;;;;;;;;4992284;28;25072;-72
2024/03/16 03:42:04;;;;;;;7.63;1.80;;;;;;;;;;4967930;28;25063;-74
2024/03/16 03:44:38;;;;;;;9.32;1.98;;;;;;;;;;4977020;28;25063;-74
2024/03/16 03:47:04;;;;;;;9.73;1.73;;;;;;;;;;4984244;28;25057;-73
2024/03/16 03:49:35;;;;;;;6.45;1.75;;;;;;;;;;4966867;28;25059;-73
2024/03/16 03:52:02;;;;;;;11.60;2.05;;;;;;;;;;4966677;28;25089;-72
2024/03/16 03:54:28;;;;;;;10.05;2.78;;;;;;;;;;4975649;28;25056;-72
2024/03/16 03:56:54;;;;;;;8.25;2.30;;;;;;;;;;4964509;28;25081;-75
2024/03/16 03:59:21;;;;;;;10.18;2.10;;;;;;;;;;4969582;28;25081;-75
2024/03/16 04:01:47;;;;;;;5.45;1.73;;;;;;;;;;4969460;28;25071;-72
2024/03/16 04:04:14;;;;;;;11.25;1.67;;;;;;;;;;4968487;28;25102;-72
2024/03/16 04:06:44;;;;;;;10.68;2.00;;;;;;;;;;4970238;28;25079;-76
2024/03/16 04:09:11;;;;;;;6.18;1.50;;;;;;;;;;4964437;28;25076;-72
2024/03/16 04:11:39;;;;;;;7.82;1.85;;;;;;;;;;4967237;28;25072;-75
2024/03/16 04:14:05;;;;;;;7.95;2.03;;;;;;;;;;4963749;28;25085;-73
2024/03/16 04:16:31;;;;;;;5.13;1.58;;;;;;;;;;4958687;28;25037;-74
2024/03/16 04:18:57;;;;;;;6.97;1.42;;;;;;;;;;4963313;28;25060;-72
2024/03/16 04:21:23;;;;;;;4.55;1.58;;;;;;;;;;4966159;28;25062;-71
2024/03/16 04:23:49;;;;;;;9.25;1.60;;;;;;;;;;4963385;28;25069;-74
2024/03/16 04:26:15;;;;;;;6.05;1.33;;;;;;;;;;4967460;28;25175;-74
2024/03/16 04:28:41;;;;;;;6.82;1.70;;;;;;;;;;4970458;28;25120;-75
2024/03/16 04:31:07;;;;;;;7.53;2.15;;;;;;;;;;4960597;28;25067;-74
2024/03/16 04:33:33;;;;;;;7.40;1.63;;;;;;;;;;4969288;28;25081;-72
2024/03/16 04:35:59;;;;;;;10.98;2.20;;;;;;;;;;4974466;28;25074;-75
2024/03/16 04:38:26;;;;;;;9.07;1.95;;;;;;;;;;4965377;28;25057;-72
2024/03/16 04:40:52;;;;;;;11.38;1.70;;;;;;;;;;4963220;28;25054;-72
2024/03/16 04:43:18;;;;;;;12.23;2.17;;;;;;;;;;4959617;28;25070;-72
2024/03/16 04:45:50;;;;;;;11.38;2.17;;;;;;;;;;4961155;28;25070;-74
2024/03/16 04:48:16;;;;;;;12.02;2.65;;;;;;;;;;4964636;28;25092;-74
2024/03/16 04:50:42;;;;;;;9.45;2.30;;;;;;;;;;4962962;28;25116;-74
2024/03/16 04:53:08;;;;;;;10.13;1.80;;;;;;;;;;4971104;28;25073;-75
2024/03/16 04:55:34;;;;;;;9.85;1.90;;;;;;;;;;4967384;28;25054;-74
2024/03/16 04:58:04;;;;;;;11.07;1.92;;;;;;;;;;4971653;28;25152;-75
2024/03/16 05:00:30;;;;;;;8.35;2.35;;;;;;;;;;4962654;28;25057;-71
2024/03/16 05:02:56;;;;;;;9.32;1.80;;;;;;;;;;4967128;28;25113;-71
2024/03/16 05:05:22;;;;;;;14.23;2.15;;;;;;;;;;4964653;28;25146;-74
2024/03/16 05:07:48;;;;;;;10.75;2.60;;;;;;;;;;4960696;28;25066;-73
2024/03/16 05:10:14;;;;;;;12.93;2.05;;;;;;;;;;4968352;28;25058;-72
2024/03/16 05:12:40;;;;;;;9.15;2.08;;;;;;;;;;4967773;28;25096;-71
2024/03/16 05:15:07;;;;;;;8.80;1.88;;;;;;;;;;4971059;28;25109;-74
2024/03/16 05:17:35;;;;;;;14.88;2.40;;;;;;;;;;4962492;28;25053;-75
2024/03/16 05:20:01;;;;;;;11.10;2.33;;;;;;;;;;4962962;28;25103;-73
2024/03/16 05:22:29;;;;;;;12.20;2.50;;;;;;;;;;4963177;28;25095;-75
2024/03/16 05:24:55;;;;;;;6.80;2.10;;;;;;;;;;4960142;28;25053;-73
2024/03/16 05:27:21;;;;;;;12.07;2.10;;;;;;;;;;4965314;28;25084;-73
2024/03/16 05:29:47;;;;;;;15.15;2.75;;;;;;;;;;4969823;28;25078;-73
2024/03/16 05:32:14;;;;;;;13.35;2.80;;;;;;;;;;4965267;28;25141;-73
2024/03/16 05:34:40;;;;;;;9.30;1.77;;;;;;;;;;4967630;28;25119;-74
2024/03/16 05:37:06;;;;;;;10.75;2.30;;;;;;;;;;4969002;28;25076;-74
2024/03/16 05:39:32;;;;;;;15.40;2.20;;;;;;;;;;4966696;28;25062;-73
2024/03/16 05:41:58;;;;;;;11.07;1.70;;;;;;;;;;4972052;28;25075;-72
2024/03/16 05:44:25;;;;;;;7.15;1.80;;;;;;;;;;4965646;28;25053;-71
2024/03/16 05:46:51;;;;;;;10.38;1.90;;;;;;;;;;4957346;28;25043;-73
2024/03/16 05:49:17;;;;;;;10.55;2.70;;;;;;;;;;4964449;28;25110;-73
2024/03/16 05:51:43;;;;;;;11.18;2.20;;;;;;;;;;4963328;28;25085;-74
2024/03/16 05:54:09;;;;;;;10.35;2.13;;;;;;;;;;4964138;28;25077;-73
2024/03/16 05:56:36;;;;;;;8.77;1.75;;;;;;;;;;4965654;28;25077;-72
2024/03/16 05:59:02;;;;;;;13.73;2.45;;;;;;;;;;4962325;28;25053;-73
2024/03/16 06:01:28;;;;;;;8.75;1.85;;;;;;;;;;4964214;28;25272;-76
2024/03/16 06:03:55;;;;;;;11.98;2.13;;;;;;;;;;4960916;28;25066;-74
2024/03/16 06:06:21;;;;;;;8.55;2.20;;;;;;;;;;4963772;28;25068;-72
2024/03/16 06:08:47;;;;;;;9.18;2.03;;;;;;;;;;4964948;28;25073;-74
2024/03/16 06:11:13;;;;;;;12.00;2.08;;;;;;;;;;4954764;28;25074;-73
2024/03/16 06:13:39;;;;;;;9.93;1.75;;;;;;;;;;4965600;28;25057;-73
2024/03/16 06:16:05;;;;;;;9.65;2.33;;;;;;;;;;4963009;28;25077;-74
2024/03/16 06:18:31;;;;;;;8.82;1.83;;;;;;;;;;4968858;28;25098;-72
2024/03/16 06:20:57;;;;;;;9.00;1.88;;;;;;;;;;4969829;28;25089;-71
2024/03/16 06:23:23;;;;;;;12.85;2.58;;;;;;;;;;4961781;28;25074;-73
2024/03/16 06:25:50;;;;;;;9.82;2.03;;;;;;;;;;4967354;28;25076;-73
2024/03/16 06:28:17;;;;;;;17.67;3.78;;;;;;;;;;4965423;28;25082;-75
2024/03/16 06:30:48;;;;;;;12.90;2.40;;;;;;;;;;4962336;28;25122;-74
2024/03/16 06:33:37;;;;;;;12.40;2.22;;;;;;;;;;4966443;28;25077;-75
2024/03/16 06:36:01;;;;;;;14.63;2.67;;;;;;;;;;4973380;28;25072;-70
2024/03/16 06:38:29;;;;;;;14.00;3.53;;;;;;;;;;4970191;28;25078;-72
2024/03/16 06:40:55;;;;;;;13.70;2.47;;;;;;;;;;4969428;28;25039;-75
2024/03/16 06:43:21;;;;;;;12.20;3.10;;;;;;;;;;4967228;28;25137;-78
2024/03/16 06:45:47;;;;;;;11.45;2.50;;;;;;;;;;4967396;28;25055;-74
2024/03/16 06:48:13;;;;;;;19.83;3.13;;;;;;;;;;4958524;28;25110;-72
2024/03/16 06:50:39;;;;;;;9.43;3.25;;;;;;;;;;4965949;28;25069;-74
2024/03/16 06:53:06;;;;;;;19.10;2.78;;;;;;;;;;4963204;28;25060;-74
2024/03/16 06:55:32;;;;;;;15.80;3.05;;;;;;;;;;4960049;28;25070;-74
2024/03/16 06:57:58;;;;;;;13.10;2.42;;;;;;;;;;4962767;28;25052;-73
2024/03/16 07:00:24;;;;;;;17.90;3.30;;;;;;;;;;4969870;28;25156;-73
2024/03/16 07:02:50;;;;;;;20.80;3.38;;;;;;;;;;4963255;28;25053;-75
2024/03/16 07:05:16;;;;;;;19.95;3.30;;;;;;;;;;4965219;28;25063;-74
2024/03/16 07:07:42;;;;;;;14.90;2.85;;;;;;;;;;4962399;28;25086;-73
2024/03/16 07:10:08;;;;;;;12.48;3.20;;;;;;;;;;4972495;28;25102;-76
2024/03/16 07:12:34;;;;;;;12.85;2.55;;;;;;;;;;4963863;28;25058;-74
2024/03/16 07:15:00;;;;;;;18.80;2.90;;;;;;;;;;4977056;28;25154;-71
2024/03/16 07:17:26;;;;;;;15.07;2.92;;;;;;;;;;4980548;28;25064;-74
2024/03/16 07:19:53;;;;;;;12.23;2.20;;;;;;;;;;4995695;28;25062;-73
2024/03/16 07:22:19;;;;;;;17.77;2.72;;;;;;;;;;4990972;28;25056;-75
2024/03/16 07:24:45;;;;;;;9.82;2.83;;;;;;;;;;4996868;28;25116;-74
2024/03/16 07:27:11;;;;;;;8.10;2.22;;;;;;;;;;4995139;28;25188;-77
2024/03/16 07:29:38;;;;;;;7.53;1.88;;;;;;;;;;4987753;28;25105;-74
2024/03/16 07:32:04;;;;;;;8.35;1.92;;;;;;;;;;4986759;28;25058;-71
2024/03/16 07:34:31;;;;;;;7.35;2.45;;;;;;;;;;4985737;28;25071;-74
2024/03/16 07:36:58;;;;;;;8.45;2.05;;;;;;;;;;4980882;28;25091;-73
2024/03/16 07:39:25;;;;;;;6.82;1.83;;;;;;;;;;4972930;28;25090;-75
2024/03/16 07:41:52;;;;;;;13.10;2.28;;;;;;;;;;4971911;28;24834;-73
2024/03/16 07:44:19;;;;;;;7.78;2.17;;;;;;;;;;4969776;28;25068;-73
2024/03/16 07:46:46;;;;;;;17.42;3.20;;;;;;;;;;4966577;28;25081;-74
2024/03/16 07:49:12;;;;;;;8.68;2.72;;;;;;;;;;4972633;28;25120;-73
2024/03/16 07:51:38;;;;;;;15.15;2.33;;;;;;;;;;4964777;28;25060;-71
2024/03/16 07:54:08;;;;;;;10.45;2.05;;;;;;;;;;4962139;28;25076;-70
2024/03/16 07:56:34;;;;;;;11.80;2.50;;;;;;;;;;4969244;28;25083;-72
2024/03/16 07:59:00;;;;;;;10.68;2.47;;;;;;;;;;4964725;28;25140;-72
2024/03/16 08:01:26;;;;;;;12.95;2.30;;;;;;;;;;4958445;28;25067;-73
2024/03/16 08:03:52;;;;;;;11.05;2.30;;;;;;;;;;4965187;28;25059;-73
2024/03/16 08:06:18;;;;;;;8.43;1.83;;;;;;;;;;4962811;28;25068;-75
2024/03/16 08:08:45;;;;;;;13.98;2.10;;;;;;;;;;4964474;28;25151;-73
2024/03/16 08:11:11;;;;;;;11.43;1.95;;;;;;;;;;4959936;28;25074;-73
2024/03/16 08:13:37;;;;;;;12.07;2.08;;;;;;;;;;4970620;28;25144;-73
2024/03/16 08:16:03;;;;;;;9.63;1.80;;;;;;;;;;4967947;28;25083;-73
2024/03/16 08:18:29;;;;;;;11.60;2.00;;;;;;;;;;4964285;28;25067;-72
2024/03/16 08:20:58;;;;;;;8.07;1.73;;;;;;;;;;4965764;28;25050;-72
2024/03/16 08:23:24;;;;;;;7.45;1.85;;;;;;;;;;4971093;28;25079;-71
2024/03/16 08:25:50;;;;;;;8.90;2.50;;;;;;;;;;4965942;28;25082;-72
2024/03/16 08:28:17;;;;;;;11.70;2.63;;;;;;;;;;4985935;28;25142;-72
2024/03/16 08:30:43;;;;;;;7.10;1.80;;;;;;;;;;4969864;28;25065;-73
2024/03/16 08:33:10;;;;;;;9.35;2.70;;;;;;;;;;4972426;28;25062;-74
2024/03/16 08:35:36;;;;;;;9.35;1.88;;;;;;;;;;4981119;28;25067;-72
2024/03/16 08:38:02;;;;;;;11.55;2.20;;;;;;;;;;4973857;28;25070;-74
2024/03/16 08:40:28;;;;;;;11.35;2.33;;;;;;;;;;4973619;28;25151;-75
2024/03/16 08:42:54;;;;;;;9.18;1.90;;;;;;;;;;4979501;28;25100;-72
2024/03/16 08:45:20;;;;;;;12.95;2.15;;;;;;;;;;4970478;28;25070;-71
2024/03/16 08:47:46;;;;;;;6.95;1.60;;;;;;;;;;4974293;28;25099;-72
2024/03/16 08:50:12;;;;;;;8.25;2.33;;;;;;;;;;4965701;28;25100;-72
2024/03/16 08:52:38;;;;;;;9.15;1.88;;;;;;;;;;4961408;28;25056;-72
2024/03/16 08:55:04;;;;;;;7.13;1.55;;;;;;;;;;4964117;28;25055;-71
2024/03/16 08:57:30;;;;;;;10.95;2.38;;;;;;;;;;4963164;28;25000;-71
2024/03/16 08:59:57;;;;;;;6.03;1.88;;;;;;;;;;4959969;28;25146;-71
2024/03/16 09:02:26;;;;;;;7.47;2.13;;;;;;;;;;4967079;28;25087;-74
2024/03/16 09:04:52;;;;;;;6.05;1.90;;;;;;;;;;4970159;28;25053;-70
2024/03/16 09:07:19;;;;;;;4.63;1.63;;;;;;;;;;4966304;28;25063;-71
2024/03/16 09:09:46;;;;;;;7.25;1.60;;;;;;;;;;4966975;28;25054;-73
2024/03/16 09:12:12;;;;;;;5.57;1.95;;;;;;;;;;4967323;28;24925;-75
2024/03/16 09:14:38;;;;;;;9.13;1.77;;;;;;;;;;4974177;28;25077;-73
2024/03/16 09:17:05;;;;;;;8.25;1.80;;;;;;;;;;4957889;28;25143;-72
2024/03/16 09:19:32;;;;;;;8.02;2.20;;;;;;;;;;4970454;28;25078;-71
2024/03/16 09:21:58;;;;;;;4.45;1.80;;;;;;;;;;4968997;28;25060;-74
2024/03/16 09:24:24;;;;;;;8.55;1.65;;;;;;;;;;4964098;28;25072;-71
2024/03/16 09:26:50;;;;;;;5.68;1.90;;;;;;;;;;4967845;28;25056;-72
2024/03/16 09:29:16;;;;;;;6.70;2.03;;;;;;;;;;4968084;28;25060;-70
2024/03/16 09:31:42;;;;;;;9.95;2.08;;;;;;;;;;4969205;28;25125;-70
2024/03/16 09:34:10;;;;;;;7.88;1.65;;;;;;;;;;4964096;28;25062;-72
2024/03/16 09:36:37;;;;;;;6.30;2.05;;;;;;;;;;4963382;28;25135;-74
2024/03/16 09:39:09;;;;;;;4.93;1.55;;;;;;;;;;4960995;28;25092;-79
2024/03/16 09:41:36;;;;;;;7.40;1.75;;;;;;;;;;4967100;28;25089;-72
2024/03/16 09:44:03;;;;;;;12.90;1.92;;;;;;;;;;4962727;28;25118;-72
2024/03/16 09:46:31;;;;;;;13.85;2.38;;;;;;;;;;4964937;28;25055;-75
2024/03/16 09:48:57;;;;;;;7.15;1.88;;;;;;;;;;4969173;28;25056;-71
2024/03/16 09:51:23;;;;;;;11.45;1.75;;;;;;;;;;4960775;28;25086;-73
2024/03/16 09:53:49;;;;;;;13.52;3.45;;;;;;;;;;4965435;28;25122;-72
2024/03/16 09:56:16;;;;;;;7.18;1.50;;;;;;;;;;4966904;28;25149;-73
2024/03/16 09:58:42;;;;;;;6.63;1.98;;;;;;;;;;4963509;28;25085;-72
2024/03/16 10:01:09;;;;;;;4.47;1.40;;;;;;;;;;4960512;28;25071;-76
2024/03/16 10:03:36;;;;;;;3.90;1.23;;;;;;;;;;4964280;28;25054;-74
2024/03/16 10:06:04;;;;;;;4.82;1.23;;;;;;;;;;4968144;28;25069;-76
2024/03/16 10:08:31;;;;;;;7.45;1.40;;;;;;;;;;4977740;28;25058;-72
2024/03/16 10:11:14;;;;;;;2.92;1.50;;;;;;;;;;4959939;28;25140;-71
2024/03/16 10:13:52;;;;;;;2.55;1.70;;;;;;;;;;4961323;28;25104;-72
2024/03/16 10:16:20;;;;;;;3.88;1.30;;;;;;;;;;4962549;28;25070;-74
2024/03/16 10:18:46;;;;;;;6.22;1.73;;;;;;;;;;4961413;28;25057;-73
2024/03/16 10:21:12;;;;;;;8.73;1.63;;;;;;;;;;4966840;28;25098;-76
2024/03/16 10:23:38;;;;;;;5.13;1.30;;;;;;;;;;4966923;28;25081;-73
2024/03/16 10:26:09;;;;;;;4.68;1.40;;;;;;;;;;4962436;28;25061;-75
2024/03/16 10:28:38;;;;;;;7.13;1.30;;;;;;;;;;4958720;28;25062;-73
2024/03/16 10:31:04;;;;;;;3.97;1.20;;;;;;;;;;4958337;28;25055;-70
2024/03/16 10:33:36;;;;;;;5.20;1.52;;;;;;;;;;4967080;28;25071;-73
2024/03/16 10:36:02;;;;;;;6.45;1.33;;;;;;;;;;4964567;28;25074;-73
2024/03/16 10:38:29;;;;;;;5.18;1.15;;;;;;;;;;4970933;28;25085;-71
2024/03/16 10:40:59;;;;;;;4.32;1.42;;;;;;;;;;4960274;28;25123;-74
2024/03/16 10:43:30;;;;;;;4.82;1.00;;;;;;;;;;4961212;28;25153;-74
2024/03/16 10:45:56;;;;;;;4.95;1.63;;;;;;;;;;4960746;28;25059;-73
2024/03/16 10:48:25;;;;;;;3.53;1.30;;;;;;;;;;4955752;28;25095;-72
2024/03/16 10:50:53;;;;;;;6.63;1.55;;;;;;;;;;4965992;28;25070;-73
2024/03/16 10:53:19;;;;;;;4.45;1.50;;;;;;;;;;4964576;28;25106;-74
2024/03/16 10:55:46;;;;;;;5.90;1.25;;;;;;;;;;4968311;28;25062;-73
2024/03/16 10:58:22;;;;;;;5.47;1.42;;;;;;;;;;4964689;28;25069;-73
2024/03/16 11:00:49;;;;;;;3.35;1.23;;;;;;;;;;4968642;28;25089;-73
2024/03/16 11:03:37;;;;;;;6.85;1.67;;;;;;;;;;4965584;28;25072;-72
2024/03/16 11:06:12;;;;;;;7.25;1.30;;;;;;;;;;4962641;28;25062;-72
2024/03/16 11:08:41;;;;;;;4.32;1.35;;;;;;;;;;4964624;28;25089;-73
2024/03/16 11:11:11;;;;;;;5.45;1.10;;;;;;;;;;4978867;28;25081;-74
2024/03/16 11:13:37;;;;;;;5.45;1.40;;;;;;;;;;4971999;28;25051;-76
2024/03/16 11:16:26;;;;;;;5.07;1.70;;;;;;;;;;4984635;28;25074;-73
2024/03/16 11:18:58;;;;;;;9.15;1.58;;;;;;;;;;4969646;28;25054;-73
2024/03/16 11:21:26;;;;;;;4.03;1.00;;;;;;;;;;4969713;28;25145;-73
2024/03/16 11:23:53;;;;;;;3.85;1.42;;;;;;;;;;4969416;28;25090;-74
2024/03/16 11:26:28;;;;;;;8.68;1.40;;;;;;;;;;4961288;28;25083;-75
2024/03/16 11:29:08;;;;;;;4.30;1.05;;;;;;;;;;4960833;28;25057;-74
2024/03/16 11:31:37;;;;;;;8.30;2.03;;;;;;;;;;4964293;28;25082;-76
2024/03/16 11:34:04;;;;;;;8.15;1.50;;;;;;;;;;4963000;28;25110;-75
2024/03/16 11:36:30;;;;;;;7.82;1.73;;;;;;;;;;4962556;28;25085;-75
2024/03/16 11:38:56;;;;;;;9.27;2.38;;;;;;;;;;4969669;28;25059;-75
2024/03/16 11:41:22;;;;;;;6.18;1.50;;;;;;;;;;4954626;28;25155;-75
2024/03/16 11:43:48;;;;;;;6.18;1.45;;;;;;;;;;4965626;28;25069;-76
2024/03/16 11:46:19;;;;;;;9.73;1.65;;;;;;;;;;4967911;28;25075;-73
2024/03/16 11:48:45;;;;;;;7.88;1.65;;;;;;;;;;4969218;28;25067;-74
2024/03/16 11:51:15;;;;;;;6.82;1.13;;;;;;;;;;4970375;28;25104;-75
2024/03/16 11:53:41;;;;;;;8.60;1.80;;;;;;;;;;4973813;28;25125;-71
2024/03/16 11:56:11;;;;;;;10.02;1.50;;;;;;;;;;4977436;28;25169;-73
2024/03/16 11:58:39;;;;;;;9.05;1.88;;;;;;;;;;4979309;28;25076;-73
2024/03/16 12:01:05;;;;;;;6.07;2.10;;;;;;;;;;4974076;28;25062;-76
2024/03/16 12:03:31;;;;;;;8.77;1.70;;;;;;;;;;4968342;28;25107;-76
2024/03/16 12:05:57;;;;;;;4.20;1.25;;;;;;;;;;4972702;28;25093;-74
2024/03/16 12:08:24;;;;;;;6.38;1.40;;;;;;;;;;4971473;28;25129;-74
2024/03/16 12:10:50;;;;;;;6.47;1.50;;;;;;;;;;4968267;28;25122;-75
2024/03/16 12:13:17;;;;;;;5.88;1.42;;;;;;;;;;4964085;28;25937;-73
2024/03/16 12:15:43;;;;;;;4.95;1.58;;;;;;;;;;4970061;28;25152;-74
2024/03/16 12:18:09;;;;;;;6.90;2.17;;;;;;;;;;4972683;28;25175;-76
2024/03/16 12:20:35;;;;;;;7.53;1.77;;;;;;;;;;4981513;28;25064;-73
2024/03/16 12:23:01;;;;;;;9.65;1.85;;;;;;;;;;4971451;28;25075;-73
2024/03/16 12:25:27;;;;;;;7.78;1.58;;;;;;;;;;4971869;28;25151;-74
2024/03/16 12:27:54;;;;;;;5.72;1.50;;;;;;;;;;4964187;28;25079;-75
2024/03/16 12:30:21;;;;;;;10.48;1.27;;;;;;;;;;4967853;28;25095;-72
2024/03/16 12:32:48;;;;;;;4.68;1.40;;;;;;;;;;4965950;28;25086;-74
2024/03/16 12:35:14;;;;;;;9.18;2.45;;;;;;;;;;4975054;28;25121;-77
2024/03/16 12:37:40;;;;;;;9.35;2.03;;;;;;;;;;4963236;28;25157;-73
2024/03/16 12:40:07;;;;;;;5.97;2.05;;;;;;;;;;4961308;28;25082;-75
2024/03/16 12:42:34;;;;;;;11.20;1.90;;;;;;;;;;4965631;28;25069;-78
2024/03/16 12:45:00;;;;;;;10.90;2.33;;;;;;;;;;4964456;28;25062;-72
2024/03/16 12:47:27;;;;;;;8.25;1.98;;;;;;;;;;4967299;28;25130;-74
2024/03/16 12:49:53;;;;;;;9.63;2.03;;;;;;;;;;4970060;28;25096;-75
2024/03/16 12:52:23;;;;;;;10.82;1.95;;;;;;;;;;4972030;28;25063;-77
2024/03/16 12:54:49;;;;;;;8.57;1.40;;;;;;;;;;4963368;28;25058;-72
2024/03/16 12:57:15;;;;;;;10.25;2.20;;;;;;;;;;4962300;28;25075;-76
2024/03/16 12:59:41;;;;;;;8.05;2.05;;;;;;;;;;4963911;28;25079;-74
2024/03/16 13:02:07;;;;;;;5.25;2.03;;;;;;;;;;4959138;28;25078;-74
2024/03/16 13:04:33;;;;;;;9.57;2.13;;;;;;;;;;4961569;28;25067;-75
2024/03/16 13:06:59;;;;;;;8.63;2.40;;;;;;;;;;4960060;28;25110;-75
2024/03/16 13:09:25;;;;;;;13.27;1.90;;;;;;;;;;4961766;28;25082;-74
2024/03/16 13:11:52;;;;;;;11.60;2.00;;;;;;;;;;4962314;28;25064;-74
2024/03/16 13:14:19;;;;;;;8.82;1.80;;;;;;;;;;4973041;28;25136;-75
2024/03/16 13:16:45;;;;;;;7.22;1.70;;;;;;;;;;4961061;28;25203;-76
2024/03/16 13:19:13;;;;;;;12.52;2.70;;;;;;;;;;4965931;28;25056;-74
2024/03/16 13:21:40;;;;;;;5.60;1.60;;;;;;;;;;4975095;28;25075;-73
2024/03/16 13:24:06;;;;;;;8.95;2.05;;;;;;;;;;4973783;28;25104;-74
2024/03/16 13:26:32;;;;;;;12.57;1.88;;;;;;;;;;4966691;28;25109;-76
2024/03/16 13:28:59;;;;;;;12.75;1.98;;;;;;;;;;4966571;28;25048;-74
2024/03/16 13:31:28;;;;;;;9.50;2.25;;;;;;;;;;4971557;28;25141;-72
2024/03/16 13:33:54;;;;;;;16.75;1.98;;;;;;;;;;4968212;28;25097;-74
2024/03/16 13:36:20;;;;;;;9.65;1.90;;;;;;;;;;4970105;28;25088;-76
2024/03/16 13:38:46;;;;;;;6.13;1.70;;;;;;;;;;4969906;28;25072;-75
2024/03/16 13:41:12;;;;;;;9.13;1.88;;;;;;;;;;4973177;28;221344;-76
2024/03/16 13:43:42;;;;;;;10.68;2.03;;;;;;;;;;4965182;28;25056;-74
2024/03/16 13:46:12;;;;;;;7.65;2.20;;;;;;;;;;4965668;28;25082;-74
2024/03/16 13:48:38;;;;;;;12.88;2.30;;;;;;;;;;4960144;28;25113;-74
2024/03/16 13:51:04;;;;;;;10.32;2.20;;;;;;;;;;4962881;28;25087;-72
2024/03/16 13:53:30;;;;;;;10.38;2.03;;;;;;;;;;4963755;28;25079;-75
2024/03/16 13:55:57;;;;;;;8.45;2.15;;;;;;;;;;4964301;28;25074;-76
2024/03/16 13:58:23;;;;;;;12.27;2.30;;;;;;;;;;4960151;28;25066;-74
2024/03/16 14:00:49;;;;;;;12.38;2.30;;;;;;;;;;4969912;28;25063;-76
2024/03/16 14:03:16;;;;;;;12.27;2.28;;;;;;;;;;4959117;28;25088;-74
2024/03/16 14:05:42;;;;;;;7.78;1.83;;;;;;;;;;4961602;28;25069;-74
2024/03/16 14:08:09;;;;;;;19.45;2.58;;;;;;;;;;4965515;28;25153;-75
2024/03/16 14:10:37;;;;;;;12.45;2.15;;;;;;;;;;4968056;28;25058;-73
2024/03/16 14:13:03;;;;;;;13.55;2.25;;;;;;;;;;4966875;28;25064;-74
2024/03/16 14:15:29;;;;;;;15.38;2.80;;;;;;;;;;4960456;28;25083;-73
2024/03/16 14:17:56;;;;;;;10.90;2.60;;;;;;;;;;4963050;28;25095;-73
2024/03/16 14:20:30;;;;;;;8.55;2.20;;;;;;;;;;4956846;28;25128;-74
2024/03/16 14:22:56;;;;;;;9.88;2.20;;;;;;;;;;4966099;28;25079;-72
2024/03/16 14:25:22;;;;;;;14.43;2.95;;;;;;;;;;4969078;28;25077;-73
2024/03/16 14:27:51;;;;;;;11.30;2.65;;;;;;;;;;4964286;28;25176;-75
2024/03/16 14:30:20;;;;;;;10.80;2.53;;;;;;;;;;4970654;28;25119;-74
2024/03/16 14:32:49;;;;;;;7.50;2.17;;;;;;;;;;4967530;28;25148;-73
2024/03/16 14:35:15;;;;;;;9.13;2.47;;;;;;;;;;4966282;28;25061;-72